sensor_id;sensor_type;location;lat;lon;timestamp;temperature;humidity
58983;DHT22;44771;49.982;8.560;2022-11-13T00:03:28;4.10;99.90
58983;DHT22;44771;49.982;8.560;2022-11-13T00:08:32;4.10;99.90
58983;DHT22;44771;49.982;8.560;2022-11-13T00:13:35;4.00;99.90
58983;DHT22;44771;49.982;8.560;2022-11-13T00:18:38;3.90;99.90
58983;DHT22;44771;49.982;8.560;2022-11-13T00:23:41;3.90;99.90
58983;DHT22;44771;49.982;8.560;2022-11-13T00:28:44;3.90;99.90
58983;DHT22;44771;49.982;8.560;2022-11-13T00:33:52;3.80;99.90
58983;DHT22;44771;49.982;8.560;2022-11-13T00:39:17;3.70;99.90
58983;DHT22;44771;49.982;8.560;2022-11-13T00:44:19;3.70;99.90
58983;DHT22;44771;49.982;8.560;2022-11-13T00:49:22;3.70;99.90
58983;DHT22;44771;49.982;8.560;2022-11-13T00:54:24;3.60;99.90
58983;DHT22;44771;49.982;8.560;2022-11-13T00:59:30;3.60;99.90
58983;DHT22;44771;49.982;8.560;2022-11-13T01:04:34;3.60;99.90
58983;DHT22;44771;49.982;8.560;2022-11-13T01:09:36;3.60;99.90
58983;DHT22;44771;49.982;8.560;2022-11-13T01:14:40;3.60;99.90
58983;DHT22;44771;49.982;8.560;2022-11-13T01:19:43;3.60;99.90
58983;DHT22;44771;49.982;8.560;2022-11-13T01:24:45;3.60;99.90
58983;DHT22;44771;49.982;8.560;2022-11-13T01:29:48;3.50;99.90
58983;DHT22;44771;49.982;8.560;2022-11-13T01:34:51;3.50;99.90
58983;DHT22;44771;49.982;8.560;2022-11-13T01:39:55;3.50;99.90
58983;DHT22;44771;49.982;8.560;2022-11-13T01:44:59;3.50;99.90
58983;DHT22;44771;49.982;8.560;2022-11-13T01:50:03;3.50;99.90
58983;DHT22;44771;49.982;8.560;2022-11-13T01:55:08;3.40;99.90
58983;DHT22;44771;49.982;8.560;2022-11-13T02:00:12;3.30;99.90
58983;DHT22;44771;49.982;8.560;2022-11-13T02:05:16;3.30;99.90
58983;DHT22;44771;49.982;8.560;2022-11-13T02:10:18;3.30;99.90
58983;DHT22;44771;49.982;8.560;2022-11-13T02:15:22;3.40;99.90
58983;DHT22;44771;49.982;8.560;2022-11-13T02:20:29;3.30;99.90
58983;DHT22;44771;49.982;8.560;2022-11-13T02:25:33;3.20;99.90
58983;DHT22;44771;49.982;8.560;2022-11-13T02:30:36;3.00;99.90
58983;DHT22;44771;49.982;8.560;2022-11-13T02:35:38;3.00;99.90
58983;DHT22;44771;49.982;8.560;2022-11-13T02:40:41;3.00;99.90
58983;DHT22;44771;49.982;8.560;2022-11-13T02:45:43;2.80;99.90
58983;DHT22;44771;49.982;8.560;2022-11-13T02:50:45;2.80;99.90
58983;DHT22;44771;49.982;8.560;2022-11-13T02:55:48;2.70;99.90
58983;DHT22;44771;49.982;8.560;2022-11-13T03:00:50;2.70;99.90
58983;DHT22;44771;49.982;8.560;2022-11-13T03:05:52;2.70;99.90
58983;DHT22;44771;49.982;8.560;2022-11-13T03:10:56;2.60;99.90
58983;DHT22;44771;49.982;8.560;2022-11-13T03:16:05;2.60;99.90
58983;DHT22;44771;49.982;8.560;2022-11-13T03:21:10;2.50;99.90
58983;DHT22;44771;49.982;8.560;2022-11-13T03:26:15;2.50;99.90
58983;DHT22;44771;49.982;8.560;2022-11-13T03:31:17;2.30;99.90
58983;DHT22;44771;49.982;8.560;2022-11-13T03:36:19;2.20;99.90
58983;DHT22;44771;49.982;8.560;2022-11-13T03:41:22;2.20;99.90
58983;DHT22;44771;49.982;8.560;2022-11-13T03:46:24;2.10;99.90
58983;DHT22;44771;49.982;8.560;2022-11-13T03:51:26;2.10;99.90
58983;DHT22;44771;49.982;8.560;2022-11-13T03:56:29;2.20;99.90
58983;DHT22;44771;49.982;8.560;2022-11-13T04:01:31;2.20;99.90
58983;DHT22;44771;49.982;8.560;2022-11-13T04:06:33;2.10;99.90
58983;DHT22;44771;49.982;8.560;2022-11-13T04:11:36;2.10;99.90
58983;DHT22;44771;49.982;8.560;2022-11-13T04:16:55;2.00;99.90
58983;DHT22;44771;49.982;8.560;2022-11-13T04:21:57;2.00;99.90
58983;DHT22;44771;49.982;8.560;2022-11-13T04:27:00;1.90;99.90
58983;DHT22;44771;49.982;8.560;2022-11-13T04:32:02;1.80;99.90
58983;DHT22;44771;49.982;8.560;2022-11-13T04:37:05;1.70;99.90
58983;DHT22;44771;49.982;8.560;2022-11-13T04:42:10;1.50;99.90
58983;DHT22;44771;49.982;8.560;2022-11-13T04:47:12;1.40;99.90
58983;DHT22;44771;49.982;8.560;2022-11-13T04:52:14;1.40;99.90
58983;DHT22;44771;49.982;8.560;2022-11-13T04:57:17;1.30;99.90
58983;DHT22;44771;49.982;8.560;2022-11-13T05:02:19;1.20;99.90
58983;DHT22;44771;49.982;8.560;2022-11-13T05:07:21;1.10;99.90
58983;DHT22;44771;49.982;8.560;2022-11-13T05:12:26;1.10;99.90
58983;DHT22;44771;49.982;8.560;2022-11-13T05:17:28;1.10;99.90
58983;DHT22;44771;49.982;8.560;2022-11-13T05:22:30;1.00;99.90
58983;DHT22;44771;49.982;8.560;2022-11-13T05:27:34;0.90;99.90
58983;DHT22;44771;49.982;8.560;2022-11-13T05:32:59;0.90;99.90
58983;DHT22;44771;49.982;8.560;2022-11-13T05:38:02;0.90;99.90
58983;DHT22;44771;49.982;8.560;2022-11-13T05:43:05;0.80;99.90
58983;DHT22;44771;49.982;8.560;2022-11-13T05:48:07;0.80;99.90
58983;DHT22;44771;49.982;8.560;2022-11-13T05:53:09;0.60;99.90
58983;DHT22;44771;49.982;8.560;2022-11-13T05:58:12;0.60;99.90
58983;DHT22;44771;49.982;8.560;2022-11-13T06:03:14;0.50;99.90
58983;DHT22;44771;49.982;8.560;2022-11-13T06:08:25;0.40;99.90
58983;DHT22;44771;49.982;8.560;2022-11-13T06:13:29;0.30;99.90
58983;DHT22;44771;49.982;8.560;2022-11-13T06:18:32;0.20;99.90
58983;DHT22;44771;49.982;8.560;2022-11-13T06:23:37;0.20;99.90
58983;DHT22;44771;49.982;8.560;2022-11-13T06:28:41;-0.10;99.90
58983;DHT22;44771;49.982;8.560;2022-11-13T06:33:43;-0.20;99.90
58983;DHT22;44771;49.982;8.560;2022-11-13T06:38:46;-0.20;99.90
58983;DHT22;44771;49.982;8.560;2022-11-13T06:44:01;-0.20;99.90
58983;DHT22;44771;49.982;8.560;2022-11-13T06:49:06;-0.10;99.90
58983;DHT22;44771;49.982;8.560;2022-11-13T06:54:13;-0.10;99.90
58983;DHT22;44771;49.982;8.560;2022-11-13T06:59:19;-0.10;99.90
58983;DHT22;44771;49.982;8.560;2022-11-13T07:04:21;-0.30;99.90
58983;DHT22;44771;49.982;8.560;2022-11-13T07:15:34;-0.40;99.90
58983;DHT22;44771;49.982;8.560;2022-11-13T07:20:39;-0.40;99.90
58983;DHT22;44771;49.982;8.560;2022-11-13T07:25:41;-0.30;99.90
58983;DHT22;44771;49.982;8.560;2022-11-13T07:30:44;-0.30;99.90
58983;DHT22;44771;49.982;8.560;2022-11-13T07:35:46;-0.20;99.90
58983;DHT22;44771;49.982;8.560;2022-11-13T07:40:48;-0.10;99.90
58983;DHT22;44771;49.982;8.560;2022-11-13T07:45:52;0.00;99.90
58983;DHT22;44771;49.982;8.560;2022-11-13T07:50:54;0.10;99.90
58983;DHT22;44771;49.982;8.560;2022-11-13T07:56:00;0.30;99.90
58983;DHT22;44771;49.982;8.560;2022-11-13T08:01:11;0.40;99.90
58983;DHT22;44771;49.982;8.560;2022-11-13T08:06:16;0.60;99.90
58983;DHT22;44771;49.982;8.560;2022-11-13T08:11:32;1.00;99.90
58983;DHT22;44771;49.982;8.560;2022-11-13T08:16:35;1.80;99.90
58983;DHT22;44771;49.982;8.560;2022-11-13T08:21:37;2.30;99.90
58983;DHT22;44771;49.982;8.560;2022-11-13T08:26:39;2.50;99.90
58983;DHT22;44771;49.982;8.560;2022-11-13T08:31:42;2.70;99.90
58983;DHT22;44771;49.982;8.560;2022-11-13T08:42:01;2.90;99.90
58983;DHT22;44771;49.982;8.560;2022-11-13T08:47:04;3.20;99.90
58983;DHT22;44771;49.982;8.560;2022-11-13T08:52:06;3.30;99.90
58983;DHT22;44771;49.982;8.560;2022-11-13T08:57:08;3.60;99.90
58983;DHT22;44771;49.982;8.560;2022-11-13T09:02:17;3.70;99.90
58983;DHT22;44771;49.982;8.560;2022-11-13T09:07:21;3.90;99.90
58983;DHT22;44771;49.982;8.560;2022-11-13T09:12:28;4.10;99.90
58983;DHT22;44771;49.982;8.560;2022-11-13T09:17:32;4.30;99.90
58983;DHT22;44771;49.982;8.560;2022-11-13T09:22:34;4.50;99.90
58983;DHT22;44771;49.982;8.560;2022-11-13T09:27:36;4.70;99.90
58983;DHT22;44771;49.982;8.560;2022-11-13T09:32:39;4.80;99.90
58983;DHT22;44771;49.982;8.560;2022-11-13T09:37:41;5.10;99.90
58983;DHT22;44771;49.982;8.560;2022-11-13T09:42:47;5.60;99.90
58983;DHT22;44771;49.982;8.560;2022-11-13T10:59:17;8.40;99.90
58983;DHT22;44771;49.982;8.560;2022-11-13T11:32:09;9.60;99.90
58983;DHT22;44771;49.982;8.560;2022-11-13T11:37:19;9.70;99.90
58983;DHT22;44771;49.982;8.560;2022-11-13T11:48:10;10.20;99.90
58983;DHT22;44771;49.982;8.560;2022-11-13T11:53:32;10.40;99.90
58983;DHT22;44771;49.982;8.560;2022-11-13T11:59:21;10.70;99.90
58983;DHT22;44771;49.982;8.560;2022-11-13T12:05:03;11.10;99.90
58983;DHT22;44771;49.982;8.560;2022-11-13T12:10:37;11.40;99.90
58983;DHT22;44771;49.982;8.560;2022-11-13T12:15:54;11.60;99.90
58983;DHT22;44771;49.982;8.560;2022-11-13T12:21:16;11.60;99.90
58983;DHT22;44771;49.982;8.560;2022-11-13T12:26:42;12.10;99.90
58983;DHT22;44771;49.982;8.560;2022-11-13T12:32:06;12.30;99.90
58983;DHT22;44771;49.982;8.560;2022-11-13T12:59:52;12.50;99.90
58983;DHT22;44771;49.982;8.560;2022-11-13T13:10:24;12.30;99.90
58983;DHT22;44771;49.982;8.560;2022-11-13T13:15:32;12.30;99.90
58983;DHT22;44771;49.982;8.560;2022-11-13T13:20:37;12.30;99.90
58983;DHT22;44771;49.982;8.560;2022-11-13T13:25:40;12.20;99.90
58983;DHT22;44771;49.982;8.560;2022-11-13T13:30:51;12.20;99.90
58983;DHT22;44771;49.982;8.560;2022-11-13T13:36:05;11.90;99.90
58983;DHT22;44771;49.982;8.560;2022-11-13T13:41:17;11.80;99.60
58983;DHT22;44771;49.982;8.560;2022-11-13T13:46:28;11.70;99.90
58983;DHT22;44771;49.982;8.560;2022-11-13T13:51:34;11.70;99.90
58983;DHT22;44771;49.982;8.560;2022-11-13T13:56:39;11.70;99.90
58983;DHT22;44771;49.982;8.560;2022-11-13T14:01:52;11.70;99.90
58983;DHT22;44771;49.982;8.560;2022-11-13T14:06:55;11.70;99.90
58983;DHT22;44771;49.982;8.560;2022-11-13T14:11:58;11.70;99.90
58983;DHT22;44771;49.982;8.560;2022-11-13T14:17:04;11.60;99.90
58983;DHT22;44771;49.982;8.560;2022-11-13T14:22:09;11.70;99.90
58983;DHT22;44771;49.982;8.560;2022-11-13T14:27:14;11.70;99.90
58983;DHT22;44771;49.982;8.560;2022-11-13T14:32:22;11.40;99.90
58983;DHT22;44771;49.982;8.560;2022-11-13T14:37:27;11.20;99.90
58983;DHT22;44771;49.982;8.560;2022-11-13T14:42:33;11.00;99.90
58983;DHT22;44771;49.982;8.560;2022-11-13T14:53:13;10.70;99.90
58983;DHT22;44771;49.982;8.560;2022-11-13T14:58:26;10.40;99.90
58983;DHT22;44771;49.982;8.560;2022-11-13T15:03:29;10.70;99.90
58983;DHT22;44771;49.982;8.560;2022-11-13T15:08:33;10.80;99.90
58983;DHT22;44771;49.982;8.560;2022-11-13T15:13:35;10.60;99.90
58983;DHT22;44771;49.982;8.560;2022-11-13T15:18:37;10.40;99.90
58983;DHT22;44771;49.982;8.560;2022-11-13T15:23:40;10.20;99.90
58983;DHT22;44771;49.982;8.560;2022-11-13T15:28:42;9.60;99.90
58983;DHT22;44771;49.982;8.560;2022-11-13T15:33:44;9.10;99.90
58983;DHT22;44771;49.982;8.560;2022-11-13T15:38:48;8.70;99.90
58983;DHT22;44771;49.982;8.560;2022-11-13T15:43:51;8.30;99.90
58983;DHT22;44771;49.982;8.560;2022-11-13T15:48:53;8.00;99.90
58983;DHT22;44771;49.982;8.560;2022-11-13T15:53:59;7.70;99.90
58983;DHT22;44771;49.982;8.560;2022-11-13T16:04:19;7.20;99.90
58983;DHT22;44771;49.982;8.560;2022-11-13T16:09:24;6.90;99.90
58983;DHT22;44771;49.982;8.560;2022-11-13T16:14:26;6.60;99.90
58983;DHT22;44771;49.982;8.560;2022-11-13T16:19:30;6.30;99.90
58983;DHT22;44771;49.982;8.560;2022-11-13T16:24:34;6.10;99.90
58983;DHT22;44771;49.982;8.560;2022-11-13T16:29:36;5.90;99.90
58983;DHT22;44771;49.982;8.560;2022-11-13T16:34:40;5.40;99.90
58983;DHT22;44771;49.982;8.560;2022-11-13T16:39:44;5.30;99.90
58983;DHT22;44771;49.982;8.560;2022-11-13T16:44:46;5.40;99.90
58983;DHT22;44771;49.982;8.560;2022-11-13T16:49:48;5.00;99.90
58983;DHT22;44771;49.982;8.560;2022-11-13T16:54:59;4.80;99.90
58983;DHT22;44771;49.982;8.560;2022-11-13T17:00:10;4.70;99.90
58983;DHT22;44771;49.982;8.560;2022-11-13T17:05:14;4.60;99.90
58983;DHT22;44771;49.982;8.560;2022-11-13T17:10:19;4.60;99.90
58983;DHT22;44771;49.982;8.560;2022-11-13T17:15:36;4.70;99.90
58983;DHT22;44771;49.982;8.560;2022-11-13T17:20:38;4.80;99.90
58983;DHT22;44771;49.982;8.560;2022-11-13T17:25:42;4.60;99.90
58983;DHT22;44771;49.982;8.560;2022-11-13T17:30:44;4.10;99.90
58983;DHT22;44771;49.982;8.560;2022-11-13T17:35:52;4.00;99.90
58983;DHT22;44771;49.982;8.560;2022-11-13T17:41:02;3.80;99.90
58983;DHT22;44771;49.982;8.560;2022-11-13T17:46:05;3.80;99.90
58983;DHT22;44771;49.982;8.560;2022-11-13T17:51:11;3.70;99.90
58983;DHT22;44771;49.982;8.560;2022-11-13T17:56:15;3.70;99.90
58983;DHT22;44771;49.982;8.560;2022-11-13T18:01:19;3.50;99.90
58983;DHT22;44771;49.982;8.560;2022-11-13T18:06:25;3.30;99.90
58983;DHT22;44771;49.982;8.560;2022-11-13T18:11:28;3.20;99.90
58983;DHT22;44771;49.982;8.560;2022-11-13T18:16:31;3.20;99.90
58983;DHT22;44771;49.982;8.560;2022-11-13T18:21:34;3.20;99.90
58983;DHT22;44771;49.982;8.560;2022-11-13T18:26:38;3.00;99.90
58983;DHT22;44771;49.982;8.560;2022-11-13T18:31:40;3.00;99.90
58983;DHT22;44771;49.982;8.560;2022-11-13T18:36:42;2.90;99.90
58983;DHT22;44771;49.982;8.560;2022-11-13T18:41:46;2.80;99.90
58983;DHT22;44771;49.982;8.560;2022-11-13T18:46:47;2.70;99.90
58983;DHT22;44771;49.982;8.560;2022-11-13T18:51:49;2.70;99.90
58983;DHT22;44771;49.982;8.560;2022-11-13T18:56:53;2.60;99.90
58983;DHT22;44771;49.982;8.560;2022-11-13T19:01:55;2.40;99.90
58983;DHT22;44771;49.982;8.560;2022-11-13T19:06:57;2.30;99.90
58983;DHT22;44771;49.982;8.560;2022-11-13T19:12:01;2.20;99.90
58983;DHT22;44771;49.982;8.560;2022-11-13T19:17:02;2.10;99.90
58983;DHT22;44771;49.982;8.560;2022-11-13T19:22:04;2.00;99.90
58983;DHT22;44771;49.982;8.560;2022-11-13T19:27:07;1.90;99.90
58983;DHT22;44771;49.982;8.560;2022-11-13T19:32:09;1.70;99.90
58983;DHT22;44771;49.982;8.560;2022-11-13T19:37:11;1.70;99.90
58983;DHT22;44771;49.982;8.560;2022-11-13T19:42:21;1.60;99.90
58983;DHT22;44771;49.982;8.560;2022-11-13T19:47:25;1.70;99.90
58983;DHT22;44771;49.982;8.560;2022-11-13T19:52:27;1.70;99.90
58983;DHT22;44771;49.982;8.560;2022-11-13T19:57:30;1.40;99.90
58983;DHT22;44771;49.982;8.560;2022-11-13T20:02:32;1.70;99.90
58983;DHT22;44771;49.982;8.560;2022-11-13T20:07:34;1.50;99.90
58983;DHT22;44771;49.982;8.560;2022-11-13T20:12:37;1.50;99.90
58983;DHT22;44771;49.982;8.560;2022-11-13T20:17:42;1.60;99.90
58983;DHT22;44771;49.982;8.560;2022-11-13T20:22:44;1.50;99.90
58983;DHT22;44771;49.982;8.560;2022-11-13T20:27:47;1.60;99.90
58983;DHT22;44771;49.982;8.560;2022-11-13T20:32:49;1.50;99.90
58983;DHT22;44771;49.982;8.560;2022-11-13T20:37:57;1.50;99.90
58983;DHT22;44771;49.982;8.560;2022-11-13T20:43:01;1.30;99.90
58983;DHT22;44771;49.982;8.560;2022-11-13T20:48:03;1.40;99.90
58983;DHT22;44771;49.982;8.560;2022-11-13T20:53:05;1.60;99.90
58983;DHT22;44771;49.982;8.560;2022-11-13T20:58:08;1.60;99.90
58983;DHT22;44771;49.982;8.560;2022-11-13T21:03:10;1.60;99.90
58983;DHT22;44771;49.982;8.560;2022-11-13T21:08:12;1.40;99.90
58983;DHT22;44771;49.982;8.560;2022-11-13T21:13:18;1.30;99.90
58983;DHT22;44771;49.982;8.560;2022-11-13T21:18:20;1.20;99.90
58983;DHT22;44771;49.982;8.560;2022-11-13T21:23:21;1.10;99.90
58983;DHT22;44771;49.982;8.560;2022-11-13T21:28:25;1.20;99.90
58983;DHT22;44771;49.982;8.560;2022-11-13T21:33:35;1.80;99.90
58983;DHT22;44771;49.982;8.560;2022-11-13T21:38:39;1.70;99.90
58983;DHT22;44771;49.982;8.560;2022-11-13T21:43:43;1.80;99.90
58983;DHT22;44771;49.982;8.560;2022-11-13T21:48:45;1.90;99.90
58983;DHT22;44771;49.982;8.560;2022-11-13T21:53:46;1.90;99.90
58983;DHT22;44771;49.982;8.560;2022-11-13T21:58:53;1.80;99.90
58983;DHT22;44771;49.982;8.560;2022-11-13T22:03:55;1.70;99.90
58983;DHT22;44771;49.982;8.560;2022-11-13T22:08:58;1.60;99.90
58983;DHT22;44771;49.982;8.560;2022-11-13T22:14:03;1.50;99.90
58983;DHT22;44771;49.982;8.560;2022-11-13T22:19:18;1.50;99.90
58983;DHT22;44771;49.982;8.560;2022-11-13T22:24:36;1.50;99.90
58983;DHT22;44771;49.982;8.560;2022-11-13T22:30:31;1.50;99.90
58983;DHT22;44771;49.982;8.560;2022-11-13T22:41:03;1.50;99.90
58983;DHT22;44771;49.982;8.560;2022-11-13T22:46:11;1.60;99.90
58983;DHT22;44771;49.982;8.560;2022-11-13T22:51:19;1.70;99.90
58983;DHT22;44771;49.982;8.560;2022-11-13T22:56:23;1.50;99.90
58983;DHT22;44771;49.982;8.560;2022-11-13T23:01:28;1.30;99.90
58983;DHT22;44771;49.982;8.560;2022-11-13T23:06:30;1.40;99.90
58983;DHT22;44771;49.982;8.560;2022-11-13T23:11:39;1.30;99.90
58983;DHT22;44771;49.982;8.560;2022-11-13T23:16:44;1.40;99.90
58983;DHT22;44771;49.982;8.560;2022-11-13T23:21:46;1.40;99.90
58983;DHT22;44771;49.982;8.560;2022-11-13T23:26:48;1.70;99.90
58983;DHT22;44771;49.982;8.560;2022-11-13T23:31:51;1.70;99.90
58983;DHT22;44771;49.982;8.560;2022-11-13T23:36:55;1.60;99.90
58983;DHT22;44771;49.982;8.560;2022-11-13T23:41:57;1.60;99.90
58983;DHT22;44771;49.982;8.560;2022-11-13T23:47:00;1.40;99.90
58983;DHT22;44771;49.982;8.560;2022-11-13T23:52:02;1.30;99.90
58983;DHT22;44771;49.982;8.560;2022-11-13T23:57:04;1.20;99.90
